Airfield :
LOGIN :

Register | Disclaimer

   EN    FR    IT 

 










Legend :    VFR   Marginal VFR   IFR   Intensive IFR   Very Intensive IFR
Visi :
Ceiling :
>= 8 km
>= 3000ft
5 to 8 km
1000 to 3000 ft
1500m to 5 km
500 to 1000 ft
800 to 1500m
200 to 500 ft
< 800m
< 200 ft
Symbols :   Thunderstorms  Fog  Heavy snow  Heavy precipitations  Wind > 20 kt
SIGMETs :     Misc.  Thunderstorms  Icing  Turbulence  Mountain Waves  Volcanic Ashes







- Airport Elevation : 427 ft
- IATA code : CIA


LIRA - Roma Ciampino

CURRENT METAR :
  • 190320Z 07003KT 8000 FEW015 06/05 Q1011

EXPIRED METARs :
  • 190250Z 04004KT 6000 FEW015 06/05 Q1011
  • 190220Z 05006KT 4500 BR BKN015 07/06 Q1012
  • 190150Z 06005KT 5000 BR FEW005 SCT010 06/05 Q1012
  • 190120Z 02004KT 320V060 8000 3000NW FEW005 05/04 Q1012
  • 190050Z 09003KT 9000 FEW015 05/04 Q1012

TAF TAF LIRA
Valid from the 19 at 00:00 until the 20 at 00:00 UTC


182300Z 1900/1924 VRB05KT 8000 SCT030
TEMPO 1900/1906 3000 BR
TEMPO 1912/1924 4000 RA
No reported NOTAMs for that airfield.



MET'MAP, your aeronautical weather chart ! - Copyright ORBIFLY December 2007 - Disclaimer

ORBIFLY MET'MAP TEAM :

Programming & Development : Alexandra Zaïnal
Concept & Development : Baudouin d'Aumeries
Co-Development & Prog : Marc-Olivier Méhu
Technical & hardware support : Manuel Goepfert

Contact : metmap@orbifly.com




SOURCES & CREDITS :

   NOAA